sensor_id;sensor_type;location;lat;lon;timestamp;P1;durP1;ratioP1;P2;durP2;ratioP2
51949;SDS011;37974;53.218;6.640;2023-06-14T00:01:48;6.80;;;1.45;;
51949;SDS011;37974;53.218;6.640;2023-06-14T00:04:14;10.73;;;1.50;;
51949;SDS011;37974;53.218;6.640;2023-06-14T00:09:22;5.72;;;1.40;;
51949;SDS011;37974;53.218;6.640;2023-06-14T00:11:48;4.80;;;1.60;;
51949;SDS011;37974;53.218;6.640;2023-06-14T00:14:14;5.80;;;1.67;;
51949;SDS011;37974;53.218;6.640;2023-06-14T00:16:40;4.65;;;1.63;;
51949;SDS011;37974;53.218;6.640;2023-06-14T00:19:08;5.28;;;1.45;;
51949;SDS011;37974;53.218;6.640;2023-06-14T00:21:35;5.88;;;1.38;;
51949;SDS011;37974;53.218;6.640;2023-06-14T00:24:01;3.63;;;1.58;;
51949;SDS011;37974;53.218;6.640;2023-06-14T00:26:27;9.88;;;1.77;;
51949;SDS011;37974;53.218;6.640;2023-06-14T00:28:54;9.80;;;1.70;;
51949;SDS011;37974;53.218;6.640;2023-06-14T00:31:21;7.15;;;1.50;;
51949;SDS011;37974;53.218;6.640;2023-06-14T00:33:47;6.20;;;1.60;;
51949;SDS011;37974;53.218;6.640;2023-06-14T00:36:13;4.97;;;1.15;;
51949;SDS011;37974;53.218;6.640;2023-06-14T00:38:39;5.45;;;1.63;;
51949;SDS011;37974;53.218;6.640;2023-06-14T00:41:04;5.28;;;1.45;;
51949;SDS011;37974;53.218;6.640;2023-06-14T00:43:30;7.50;;;1.40;;
51949;SDS011;37974;53.218;6.640;2023-06-14T00:45:56;3.25;;;1.30;;
51949;SDS011;37974;53.218;6.640;2023-06-14T00:48:22;6.82;;;1.67;;
51949;SDS011;37974;53.218;6.640;2023-06-14T00:50:49;9.50;;;1.42;;
51949;SDS011;37974;53.218;6.640;2023-06-14T00:53:17;4.80;;;1.42;;
51949;SDS011;37974;53.218;6.640;2023-06-14T00:55:45;5.53;;;1.65;;
51949;SDS011;37974;53.218;6.640;2023-06-14T00:58:12;3.53;;;1.50;;
51949;SDS011;37974;53.218;6.640;2023-06-14T01:00:38;10.15;;;1.50;;
51949;SDS011;37974;53.218;6.640;2023-06-14T01:03:04;7.85;;;1.55;;
51949;SDS011;37974;53.218;6.640;2023-06-14T01:05:30;7.70;;;1.60;;
51949;SDS011;37974;53.218;6.640;2023-06-14T01:08:15;3.55;;;1.52;;
51949;SDS011;37974;53.218;6.640;2023-06-14T01:10:55;3.70;;;1.38;;
51949;SDS011;37974;53.218;6.640;2023-06-14T01:13:39;8.60;;;1.40;;
51949;SDS011;37974;53.218;6.640;2023-06-14T01:16:08;6.13;;;1.60;;
51949;SDS011;37974;53.218;6.640;2023-06-14T01:18:35;5.43;;;1.50;;
51949;SDS011;37974;53.218;6.640;2023-06-14T01:21:01;3.38;;;1.17;;
51949;SDS011;37974;53.218;6.640;2023-06-14T01:23:30;9.18;;;1.50;;
51949;SDS011;37974;53.218;6.640;2023-06-14T01:25:57;7.43;;;1.63;;
51949;SDS011;37974;53.218;6.640;2023-06-14T01:28:24;3.55;;;1.30;;
51949;SDS011;37974;53.218;6.640;2023-06-14T01:30:53;10.05;;;1.25;;
51949;SDS011;37974;53.218;6.640;2023-06-14T01:33:22;3.92;;;1.45;;
51949;SDS011;37974;53.218;6.640;2023-06-14T01:35:51;4.82;;;1.40;;
51949;SDS011;37974;53.218;6.640;2023-06-14T01:38:19;11.13;;;1.58;;
51949;SDS011;37974;53.218;6.640;2023-06-14T01:40:47;4.80;;;1.52;;
51949;SDS011;37974;53.218;6.640;2023-06-14T01:43:15;9.32;;;1.60;;
51949;SDS011;37974;53.218;6.640;2023-06-14T01:45:43;10.38;;;1.80;;
51949;SDS011;37974;53.218;6.640;2023-06-14T01:48:10;6.18;;;1.90;;
51949;SDS011;37974;53.218;6.640;2023-06-14T01:50:37;8.75;;;1.40;;
51949;SDS011;37974;53.218;6.640;2023-06-14T01:53:05;5.88;;;1.17;;
51949;SDS011;37974;53.218;6.640;2023-06-14T01:55:35;4.82;;;1.42;;
51949;SDS011;37974;53.218;6.640;2023-06-14T01:58:03;4.93;;;1.50;;
51949;SDS011;37974;53.218;6.640;2023-06-14T02:00:29;5.07;;;1.63;;
51949;SDS011;37974;53.218;6.640;2023-06-14T02:02:55;4.15;;;1.40;;
51949;SDS011;37974;53.218;6.640;2023-06-14T02:05:21;7.55;;;1.88;;
51949;SDS011;37974;53.218;6.640;2023-06-14T02:07:47;6.25;;;1.52;;
51949;SDS011;37974;53.218;6.640;2023-06-14T02:10:13;3.60;;;1.35;;
51949;SDS011;37974;53.218;6.640;2023-06-14T02:12:39;5.82;;;1.58;;
51949;SDS011;37974;53.218;6.640;2023-06-14T02:15:05;9.60;;;1.90;;
51949;SDS011;37974;53.218;6.640;2023-06-14T02:17:32;9.77;;;1.60;;
51949;SDS011;37974;53.218;6.640;2023-06-14T02:19:58;5.07;;;1.60;;
51949;SDS011;37974;53.218;6.640;2023-06-14T02:22:24;9.00;;;1.67;;
51949;SDS011;37974;53.218;6.640;2023-06-14T02:24:50;9.70;;;1.95;;
51949;SDS011;37974;53.218;6.640;2023-06-14T02:27:16;5.72;;;2.58;;
51949;SDS011;37974;53.218;6.640;2023-06-14T02:29:43;7.75;;;1.80;;
51949;SDS011;37974;53.218;6.640;2023-06-14T02:32:09;10.63;;;2.03;;
51949;SDS011;37974;53.218;6.640;2023-06-14T02:34:35;6.72;;;1.83;;
51949;SDS011;37974;53.218;6.640;2023-06-14T02:37:01;5.65;;;2.20;;
51949;SDS011;37974;53.218;6.640;2023-06-14T02:39:29;6.47;;;1.65;;
51949;SDS011;37974;53.218;6.640;2023-06-14T02:41:54;9.40;;;2.22;;
51949;SDS011;37974;53.218;6.640;2023-06-14T02:44:24;9.57;;;1.75;;
51949;SDS011;37974;53.218;6.640;2023-06-14T02:46:53;5.65;;;1.90;;
51949;SDS011;37974;53.218;6.640;2023-06-14T02:49:24;7.30;;;1.85;;
51949;SDS011;37974;53.218;6.640;2023-06-14T02:51:50;9.93;;;2.30;;
51949;SDS011;37974;53.218;6.640;2023-06-14T02:54:17;9.82;;;2.10;;
51949;SDS011;37974;53.218;6.640;2023-06-14T02:56:45;4.90;;;1.88;;
51949;SDS011;37974;53.218;6.640;2023-06-14T02:59:11;7.35;;;1.88;;
51949;SDS011;37974;53.218;6.640;2023-06-14T03:01:38;4.57;;;1.77;;
51949;SDS011;37974;53.218;6.640;2023-06-14T03:04:06;4.90;;;2.15;;
51949;SDS011;37974;53.218;6.640;2023-06-14T03:06:32;9.02;;;2.13;;
51949;SDS011;37974;53.218;6.640;2023-06-14T03:08:59;5.80;;;1.85;;
51949;SDS011;37974;53.218;6.640;2023-06-14T03:11:26;9.02;;;2.50;;
51949;SDS011;37974;53.218;6.640;2023-06-14T03:13:52;7.80;;;2.13;;
51949;SDS011;37974;53.218;6.640;2023-06-14T03:16:19;6.32;;;2.30;;
51949;SDS011;37974;53.218;6.640;2023-06-14T03:18:47;6.43;;;1.85;;
51949;SDS011;37974;53.218;6.640;2023-06-14T03:21:20;6.20;;;1.90;;
51949;SDS011;37974;53.218;6.640;2023-06-14T03:23:47;6.47;;;2.23;;
51949;SDS011;37974;53.218;6.640;2023-06-14T03:26:13;6.20;;;2.42;;
51949;SDS011;37974;53.218;6.640;2023-06-14T03:28:41;8.05;;;2.00;;
51949;SDS011;37974;53.218;6.640;2023-06-14T03:31:06;7.97;;;2.53;;
51949;SDS011;37974;53.218;6.640;2023-06-14T03:33:34;11.07;;;2.42;;
51949;SDS011;37974;53.218;6.640;2023-06-14T03:35:59;7.45;;;2.10;;
51949;SDS011;37974;53.218;6.640;2023-06-14T03:38:26;7.22;;;2.25;;
51949;SDS011;37974;53.218;6.640;2023-06-14T03:40:52;7.70;;;2.15;;
51949;SDS011;37974;53.218;6.640;2023-06-14T03:43:18;7.65;;;2.10;;
51949;SDS011;37974;53.218;6.640;2023-06-14T03:45:43;5.70;;;2.22;;
51949;SDS011;37974;53.218;6.640;2023-06-14T03:48:09;5.25;;;1.80;;
51949;SDS011;37974;53.218;6.640;2023-06-14T03:50:35;7.80;;;2.13;;
51949;SDS011;37974;53.218;6.640;2023-06-14T03:53:03;8.57;;;2.30;;
51949;SDS011;37974;53.218;6.640;2023-06-14T03:55:29;7.10;;;2.28;;
51949;SDS011;37974;53.218;6.640;2023-06-14T03:57:56;7.40;;;1.98;;
51949;SDS011;37974;53.218;6.640;2023-06-14T04:00:22;9.45;;;2.17;;
51949;SDS011;37974;53.218;6.640;2023-06-14T04:02:48;8.57;;;2.45;;
51949;SDS011;37974;53.218;6.640;2023-06-14T04:05:14;5.40;;;1.95;;
51949;SDS011;37974;53.218;6.640;2023-06-14T04:07:41;11.25;;;2.40;;
51949;SDS011;37974;53.218;6.640;2023-06-14T04:10:10;10.00;;;2.45;;
51949;SDS011;37974;53.218;6.640;2023-06-14T04:12:37;4.53;;;2.00;;
51949;SDS011;37974;53.218;6.640;2023-06-14T04:15:02;6.40;;;2.45;;
51949;SDS011;37974;53.218;6.640;2023-06-14T04:17:40;5.55;;;2.15;;
51949;SDS011;37974;53.218;6.640;2023-06-14T04:20:11;5.75;;;2.58;;
51949;SDS011;37974;53.218;6.640;2023-06-14T04:22:37;7.88;;;2.33;;
51949;SDS011;37974;53.218;6.640;2023-06-14T04:25:03;9.20;;;2.38;;
51949;SDS011;37974;53.218;6.640;2023-06-14T04:27:31;6.05;;;2.53;;
51949;SDS011;37974;53.218;6.640;2023-06-14T04:30:00;6.88;;;2.38;;
51949;SDS011;37974;53.218;6.640;2023-06-14T04:32:27;8.70;;;3.05;;
51949;SDS011;37974;53.218;6.640;2023-06-14T04:34:55;5.63;;;2.20;;
51949;SDS011;37974;53.218;6.640;2023-06-14T04:37:22;5.00;;;2.17;;
51949;SDS011;37974;53.218;6.640;2023-06-14T04:39:48;6.88;;;2.22;;
51949;SDS011;37974;53.218;6.640;2023-06-14T04:42:15;6.18;;;2.30;;
51949;SDS011;37974;53.218;6.640;2023-06-14T04:44:42;5.47;;;2.50;;
51949;SDS011;37974;53.218;6.640;2023-06-14T04:47:08;11.18;;;2.90;;
51949;SDS011;37974;53.218;6.640;2023-06-14T04:49:37;7.93;;;2.65;;
51949;SDS011;37974;53.218;6.640;2023-06-14T04:52:05;11.13;;;2.58;;
51949;SDS011;37974;53.218;6.640;2023-06-14T04:54:31;9.52;;;2.47;;
51949;SDS011;37974;53.218;6.640;2023-06-14T04:56:59;9.88;;;2.65;;
51949;SDS011;37974;53.218;6.640;2023-06-14T04:59:24;10.20;;;3.08;;
51949;SDS011;37974;53.218;6.640;2023-06-14T05:01:51;8.88;;;2.65;;
51949;SDS011;37974;53.218;6.640;2023-06-14T05:04:18;10.52;;;2.70;;
51949;SDS011;37974;53.218;6.640;2023-06-14T05:06:47;10.55;;;3.00;;
51949;SDS011;37974;53.218;6.640;2023-06-14T05:09:18;8.32;;;2.70;;
51949;SDS011;37974;53.218;6.640;2023-06-14T05:11:44;6.65;;;2.67;;
51949;SDS011;37974;53.218;6.640;2023-06-14T05:14:10;8.68;;;3.08;;
51949;SDS011;37974;53.218;6.640;2023-06-14T05:16:37;7.65;;;2.60;;
51949;SDS011;37974;53.218;6.640;2023-06-14T05:19:04;5.32;;;2.95;;
51949;SDS011;37974;53.218;6.640;2023-06-14T05:21:30;8.48;;;3.63;;
51949;SDS011;37974;53.218;6.640;2023-06-14T05:23:57;7.32;;;3.10;;
51949;SDS011;37974;53.218;6.640;2023-06-14T05:26:22;10.63;;;3.13;;
51949;SDS011;37974;53.218;6.640;2023-06-14T05:28:50;10.30;;;3.72;;
51949;SDS011;37974;53.218;6.640;2023-06-14T05:31:17;6.95;;;3.13;;
51949;SDS011;37974;53.218;6.640;2023-06-14T05:33:43;10.25;;;3.33;;
51949;SDS011;37974;53.218;6.640;2023-06-14T05:36:09;6.25;;;2.80;;
51949;SDS011;37974;53.218;6.640;2023-06-14T05:38:35;10.02;;;3.45;;
51949;SDS011;37974;53.218;6.640;2023-06-14T05:41:01;8.25;;;3.70;;
51949;SDS011;37974;53.218;6.640;2023-06-14T05:43:27;8.18;;;3.70;;
51949;SDS011;37974;53.218;6.640;2023-06-14T05:45:52;7.55;;;3.30;;
51949;SDS011;37974;53.218;6.640;2023-06-14T05:48:18;9.45;;;3.35;;
51949;SDS011;37974;53.218;6.640;2023-06-14T05:50:44;10.15;;;3.25;;
51949;SDS011;37974;53.218;6.640;2023-06-14T05:53:10;8.82;;;3.80;;
51949;SDS011;37974;53.218;6.640;2023-06-14T05:55:36;10.05;;;3.83;;
51949;SDS011;37974;53.218;6.640;2023-06-14T05:58:02;9.52;;;3.70;;
51949;SDS011;37974;53.218;6.640;2023-06-14T06:03:20;10.60;;;3.15;;
51949;SDS011;37974;53.218;6.640;2023-06-14T06:05:46;8.70;;;3.30;;
51949;SDS011;37974;53.218;6.640;2023-06-14T06:08:11;12.27;;;3.58;;
51949;SDS011;37974;53.218;6.640;2023-06-14T06:10:41;6.40;;;2.63;;
51949;SDS011;37974;53.218;6.640;2023-06-14T06:13:07;6.07;;;2.95;;
51949;SDS011;37974;53.218;6.640;2023-06-14T06:15:32;12.20;;;3.15;;
51949;SDS011;37974;53.218;6.640;2023-06-14T06:17:58;9.27;;;2.60;;
51949;SDS011;37974;53.218;6.640;2023-06-14T06:20:24;8.32;;;2.65;;
51949;SDS011;37974;53.218;6.640;2023-06-14T06:22:57;6.82;;;2.25;;
51949;SDS011;37974;53.218;6.640;2023-06-14T06:25:23;8.40;;;2.63;;
51949;SDS011;37974;53.218;6.640;2023-06-14T06:27:50;5.93;;;2.33;;
51949;SDS011;37974;53.218;6.640;2023-06-14T06:30:17;10.65;;;2.72;;
51949;SDS011;37974;53.218;6.640;2023-06-14T06:32:43;6.20;;;2.67;;
51949;SDS011;37974;53.218;6.640;2023-06-14T06:35:27;7.22;;;2.70;;
51949;SDS011;37974;53.218;6.640;2023-06-14T06:37:55;14.73;;;2.50;;
51949;SDS011;37974;53.218;6.640;2023-06-14T06:40:21;6.80;;;2.50;;
51949;SDS011;37974;53.218;6.640;2023-06-14T06:42:47;11.05;;;2.30;;
51949;SDS011;37974;53.218;6.640;2023-06-14T06:45:23;7.75;;;2.10;;
51949;SDS011;37974;53.218;6.640;2023-06-14T06:47:50;8.52;;;2.35;;
51949;SDS011;37974;53.218;6.640;2023-06-14T06:50:16;5.80;;;2.40;;
51949;SDS011;37974;53.218;6.640;2023-06-14T06:52:42;5.03;;;2.13;;
51949;SDS011;37974;53.218;6.640;2023-06-14T06:55:10;6.07;;;2.22;;
51949;SDS011;37974;53.218;6.640;2023-06-14T06:57:36;7.82;;;2.25;;
51949;SDS011;37974;53.218;6.640;2023-06-14T07:00:02;6.22;;;1.90;;
51949;SDS011;37974;53.218;6.640;2023-06-14T07:02:33;6.30;;;2.05;;
51949;SDS011;37974;53.218;6.640;2023-06-14T07:05:01;4.85;;;1.90;;
51949;SDS011;37974;53.218;6.640;2023-06-14T07:07:47;5.63;;;2.53;;
51949;SDS011;37974;53.218;6.640;2023-06-14T07:10:13;11.90;;;2.50;;
51949;SDS011;37974;53.218;6.640;2023-06-14T07:12:39;5.88;;;1.90;;
51949;SDS011;37974;53.218;6.640;2023-06-14T07:15:08;5.93;;;2.00;;
51949;SDS011;37974;53.218;6.640;2023-06-14T07:17:34;5.80;;;2.05;;
51949;SDS011;37974;53.218;6.640;2023-06-14T07:20:03;9.40;;;2.00;;
51949;SDS011;37974;53.218;6.640;2023-06-14T07:22:35;5.57;;;1.80;;
51949;SDS011;37974;53.218;6.640;2023-06-14T07:25:01;7.30;;;2.10;;
51949;SDS011;37974;53.218;6.640;2023-06-14T07:27:28;6.07;;;1.80;;
51949;SDS011;37974;53.218;6.640;2023-06-14T07:29:53;9.48;;;1.73;;
51949;SDS011;37974;53.218;6.640;2023-06-14T07:32:19;6.10;;;1.38;;
51949;SDS011;37974;53.218;6.640;2023-06-14T07:34:45;6.40;;;1.65;;
51949;SDS011;37974;53.218;6.640;2023-06-14T07:37:11;11.02;;;1.98;;
51949;SDS011;37974;53.218;6.640;2023-06-14T07:39:36;11.05;;;2.30;;
51949;SDS011;37974;53.218;6.640;2023-06-14T07:42:02;6.20;;;1.73;;
51949;SDS011;37974;53.218;6.640;2023-06-14T07:44:29;15.25;;;2.58;;
51949;SDS011;37974;53.218;6.640;2023-06-14T07:46:56;14.13;;;1.58;;
51949;SDS011;37974;53.218;6.640;2023-06-14T07:49:25;11.02;;;2.03;;
51949;SDS011;37974;53.218;6.640;2023-06-14T07:52:11;7.18;;;1.70;;
51949;SDS011;37974;53.218;6.640;2023-06-14T07:54:38;6.90;;;1.83;;
51949;SDS011;37974;53.218;6.640;2023-06-14T07:57:06;10.10;;;1.63;;
51949;SDS011;37974;53.218;6.640;2023-06-14T07:59:32;13.80;;;2.45;;
51949;SDS011;37974;53.218;6.640;2023-06-14T08:01:58;6.40;;;1.77;;
51949;SDS011;37974;53.218;6.640;2023-06-14T08:04:39;5.50;;;1.85;;
51949;SDS011;37974;53.218;6.640;2023-06-14T08:07:05;8.35;;;2.25;;
51949;SDS011;37974;53.218;6.640;2023-06-14T08:09:32;8.15;;;2.05;;
51949;SDS011;37974;53.218;6.640;2023-06-14T08:11:57;6.55;;;1.88;;
51949;SDS011;37974;53.218;6.640;2023-06-14T08:14:23;12.98;;;2.25;;
51949;SDS011;37974;53.218;6.640;2023-06-14T08:16:49;5.90;;;1.95;;
51949;SDS011;37974;53.218;6.640;2023-06-14T08:19:15;7.22;;;1.88;;
51949;SDS011;37974;53.218;6.640;2023-06-14T08:21:41;4.72;;;1.45;;
51949;SDS011;37974;53.218;6.640;2023-06-14T08:24:17;9.60;;;1.80;;
51949;SDS011;37974;53.218;6.640;2023-06-14T08:26:44;5.43;;;1.90;;
51949;SDS011;37974;53.218;6.640;2023-06-14T08:29:15;11.07;;;1.90;;
51949;SDS011;37974;53.218;6.640;2023-06-14T08:31:44;5.47;;;1.52;;
51949;SDS011;37974;53.218;6.640;2023-06-14T08:34:10;8.27;;;1.80;;
51949;SDS011;37974;53.218;6.640;2023-06-14T08:36:36;3.33;;;1.40;;
51949;SDS011;37974;53.218;6.640;2023-06-14T08:39:02;6.70;;;1.20;;
51949;SDS011;37974;53.218;6.640;2023-06-14T08:41:28;7.20;;;1.48;;
51949;SDS011;37974;53.218;6.640;2023-06-14T08:43:54;5.50;;;0.98;;
51949;SDS011;37974;53.218;6.640;2023-06-14T08:46:21;8.80;;;1.52;;
51949;SDS011;37974;53.218;6.640;2023-06-14T08:48:50;7.22;;;1.73;;
51949;SDS011;37974;53.218;6.640;2023-06-14T08:51:18;5.38;;;1.48;;
51949;SDS011;37974;53.218;6.640;2023-06-14T08:53:44;6.72;;;1.60;;
51949;SDS011;37974;53.218;6.640;2023-06-14T08:56:11;6.18;;;2.13;;
51949;SDS011;37974;53.218;6.640;2023-06-14T08:58:41;6.65;;;1.60;;
51949;SDS011;37974;53.218;6.640;2023-06-14T09:01:25;5.50;;;2.22;;
51949;SDS011;37974;53.218;6.640;2023-06-14T09:03:51;6.40;;;2.00;;
51949;SDS011;37974;53.218;6.640;2023-06-14T09:06:20;8.85;;;1.80;;
51949;SDS011;37974;53.218;6.640;2023-06-14T09:08:48;6.55;;;1.60;;
51949;SDS011;37974;53.218;6.640;2023-06-14T09:11:15;6.80;;;1.90;;
51949;SDS011;37974;53.218;6.640;2023-06-14T09:13:43;6.03;;;1.75;;
51949;SDS011;37974;53.218;6.640;2023-06-14T09:16:10;7.55;;;1.90;;
51949;SDS011;37974;53.218;6.640;2023-06-14T09:18:36;6.97;;;1.70;;
51949;SDS011;37974;53.218;6.640;2023-06-14T09:21:07;9.40;;;1.95;;
51949;SDS011;37974;53.218;6.640;2023-06-14T09:23:40;4.32;;;1.48;;
51949;SDS011;37974;53.218;6.640;2023-06-14T09:28:35;6.35;;;1.60;;
51949;SDS011;37974;53.218;6.640;2023-06-14T09:31:12;7.80;;;1.52;;
51949;SDS011;37974;53.218;6.640;2023-06-14T09:33:38;9.15;;;1.42;;
51949;SDS011;37974;53.218;6.640;2023-06-14T09:36:12;10.63;;;2.03;;
51949;SDS011;37974;53.218;6.640;2023-06-14T09:38:51;5.45;;;1.80;;
51949;SDS011;37974;53.218;6.640;2023-06-14T09:41:19;13.07;;;1.92;;
51949;SDS011;37974;53.218;6.640;2023-06-14T09:43:46;8.40;;;2.05;;
51949;SDS011;37974;53.218;6.640;2023-06-14T09:46:13;12.35;;;1.65;;
51949;SDS011;37974;53.218;6.640;2023-06-14T09:48:39;7.93;;;1.88;;
51949;SDS011;37974;53.218;6.640;2023-06-14T09:51:10;3.65;;;1.58;;
51949;SDS011;37974;53.218;6.640;2023-06-14T09:53:40;8.30;;;1.65;;
51949;SDS011;37974;53.218;6.640;2023-06-14T09:56:07;8.82;;;1.58;;
51949;SDS011;37974;53.218;6.640;2023-06-14T09:58:35;7.10;;;1.40;;
51949;SDS011;37974;53.218;6.640;2023-06-14T10:01:04;6.55;;;1.50;;
51949;SDS011;37974;53.218;6.640;2023-06-14T10:03:36;3.35;;;1.27;;
51949;SDS011;37974;53.218;6.640;2023-06-14T10:06:04;4.25;;;1.65;;
51949;SDS011;37974;53.218;6.640;2023-06-14T10:08:33;5.72;;;1.55;;
51949;SDS011;37974;53.218;6.640;2023-06-14T10:11:02;3.92;;;1.40;;
51949;SDS011;37974;53.218;6.640;2023-06-14T10:13:39;9.32;;;1.48;;
51949;SDS011;37974;53.218;6.640;2023-06-14T10:16:22;3.88;;;1.38;;
51949;SDS011;37974;53.218;6.640;2023-06-14T10:19:10;7.65;;;1.30;;
51949;SDS011;37974;53.218;6.640;2023-06-14T10:21:55;18.15;;;1.30;;
51949;SDS011;37974;53.218;6.640;2023-06-14T10:24:34;3.75;;;1.40;;
51949;SDS011;37974;53.218;6.640;2023-06-14T10:27:07;9.43;;;1.73;;
51949;SDS011;37974;53.218;6.640;2023-06-14T10:30:01;5.05;;;1.60;;
51949;SDS011;37974;53.218;6.640;2023-06-14T10:32:21;4.28;;;1.13;;
51949;SDS011;37974;53.218;6.640;2023-06-14T10:34:54;9.82;;;1.40;;
51949;SDS011;37974;53.218;6.640;2023-06-14T10:37:32;3.17;;;1.30;;
51949;SDS011;37974;53.218;6.640;2023-06-14T10:39:58;4.55;;;1.50;;
51949;SDS011;37974;53.218;6.640;2023-06-14T10:42:32;5.57;;;1.30;;
51949;SDS011;37974;53.218;6.640;2023-06-14T10:44:58;8.80;;;1.50;;
51949;SDS011;37974;53.218;6.640;2023-06-14T10:47:29;4.85;;;1.45;;
51949;SDS011;37974;53.218;6.640;2023-06-14T10:50:04;11.00;;;1.80;;
51949;SDS011;37974;53.218;6.640;2023-06-14T10:52:33;11.38;;;1.75;;
51949;SDS011;37974;53.218;6.640;2023-06-14T10:55:05;5.88;;;1.48;;
51949;SDS011;37974;53.218;6.640;2023-06-14T10:57:36;7.72;;;1.80;;
51949;SDS011;37974;53.218;6.640;2023-06-14T11:00:11;7.07;;;1.55;;
51949;SDS011;37974;53.218;6.640;2023-06-14T11:02:48;8.82;;;1.50;;
51949;SDS011;37974;53.218;6.640;2023-06-14T11:05:48;5.82;;;1.58;;
51949;SDS011;37974;53.218;6.640;2023-06-14T11:08:20;4.80;;;1.13;;
51949;SDS011;37974;53.218;6.640;2023-06-14T11:10:54;5.57;;;1.38;;
51949;SDS011;37974;53.218;6.640;2023-06-14T11:13:25;6.13;;;1.45;;
51949;SDS011;37974;53.218;6.640;2023-06-14T11:15:51;8.18;;;1.50;;
51949;SDS011;37974;53.218;6.640;2023-06-14T11:18:19;6.40;;;1.60;;
51949;SDS011;37974;53.218;6.640;2023-06-14T11:20:49;6.07;;;1.30;;
51949;SDS011;37974;53.218;6.640;2023-06-14T11:23:15;3.72;;;1.20;;
51949;SDS011;37974;53.218;6.640;2023-06-14T11:25:41;4.03;;;1.30;;
51949;SDS011;37974;53.218;6.640;2023-06-14T11:28:07;5.28;;;1.30;;
51949;SDS011;37974;53.218;6.640;2023-06-14T11:30:32;6.97;;;1.17;;
51949;SDS011;37974;53.218;6.640;2023-06-14T11:32:58;8.30;;;1.00;;
51949;SDS011;37974;53.218;6.640;2023-06-14T11:35:25;8.90;;;1.13;;
51949;SDS011;37974;53.218;6.640;2023-06-14T11:37:53;5.85;;;0.90;;
51949;SDS011;37974;53.218;6.640;2023-06-14T11:40:22;4.28;;;1.08;;
51949;SDS011;37974;53.218;6.640;2023-06-14T11:42:49;11.68;;;1.13;;
51949;SDS011;37974;53.218;6.640;2023-06-14T11:45:15;5.18;;;1.00;;
51949;SDS011;37974;53.218;6.640;2023-06-14T11:47:44;1.92;;;0.90;;
51949;SDS011;37974;53.218;6.640;2023-06-14T11:50:12;1.38;;;0.65;;
51949;SDS011;37974;53.218;6.640;2023-06-14T11:52:38;2.35;;;0.70;;
51949;SDS011;37974;53.218;6.640;2023-06-14T11:55:05;6.85;;;1.05;;
51949;SDS011;37974;53.218;6.640;2023-06-14T11:57:35;5.80;;;0.80;;
51949;SDS011;37974;53.218;6.640;2023-06-14T12:00:03;4.45;;;1.00;;
51949;SDS011;37974;53.218;6.640;2023-06-14T12:02:32;2.90;;;1.00;;
51949;SDS011;37974;53.218;6.640;2023-06-14T12:05:03;7.97;;;1.00;;
51949;SDS011;37974;53.218;6.640;2023-06-14T12:07:33;4.55;;;0.95;;
51949;SDS011;37974;53.218;6.640;2023-06-14T12:12:24;5.47;;;0.93;;
51949;SDS011;37974;53.218;6.640;2023-06-14T12:14:51;2.33;;;0.80;;
51949;SDS011;37974;53.218;6.640;2023-06-14T12:17:18;2.55;;;0.82;;
51949;SDS011;37974;53.218;6.640;2023-06-14T12:19:45;6.65;;;1.00;;
51949;SDS011;37974;53.218;6.640;2023-06-14T12:22:14;8.98;;;1.20;;
51949;SDS011;37974;53.218;6.640;2023-06-14T12:24:44;5.72;;;1.00;;
51949;SDS011;37974;53.218;6.640;2023-06-14T12:27:10;4.80;;;0.75;;
51949;SDS011;37974;53.218;6.640;2023-06-14T12:29:40;5.38;;;0.90;;
51949;SDS011;37974;53.218;6.640;2023-06-14T12:32:09;3.95;;;0.88;;
51949;SDS011;37974;53.218;6.640;2023-06-14T12:34:35;3.45;;;1.08;;
51949;SDS011;37974;53.218;6.640;2023-06-14T12:37:01;3.05;;;1.20;;
51949;SDS011;37974;53.218;6.640;2023-06-14T12:39:29;6.38;;;1.00;;
51949;SDS011;37974;53.218;6.640;2023-06-14T12:41:56;4.05;;;0.90;;
51949;SDS011;37974;53.218;6.640;2023-06-14T12:44:23;6.95;;;0.93;;
51949;SDS011;37974;53.218;6.640;2023-06-14T12:46:49;10.15;;;1.38;;
51949;SDS011;37974;53.218;6.640;2023-06-14T12:49:25;4.35;;;1.10;;
51949;SDS011;37974;53.218;6.640;2023-06-14T12:51:51;7.97;;;1.33;;
51949;SDS011;37974;53.218;6.640;2023-06-14T12:54:16;6.60;;;0.77;;
51949;SDS011;37974;53.218;6.640;2023-06-14T12:56:42;7.80;;;1.08;;
51949;SDS011;37974;53.218;6.640;2023-06-14T12:59:10;3.97;;;1.00;;
51949;SDS011;37974;53.218;6.640;2023-06-14T13:01:37;4.25;;;0.90;;
51949;SDS011;37974;53.218;6.640;2023-06-14T13:04:05;8.35;;;0.93;;
51949;SDS011;37974;53.218;6.640;2023-06-14T13:06:30;9.05;;;1.45;;
51949;SDS011;37974;53.218;6.640;2023-06-14T13:08:56;4.57;;;0.95;;
51949;SDS011;37974;53.218;6.640;2023-06-14T13:11:24;4.93;;;1.00;;
51949;SDS011;37974;53.218;6.640;2023-06-14T13:13:50;3.72;;;1.05;;
51949;SDS011;37974;53.218;6.640;2023-06-14T13:16:15;7.60;;;1.10;;
51949;SDS011;37974;53.218;6.640;2023-06-14T13:18:41;4.63;;;0.90;;
51949;SDS011;37974;53.218;6.640;2023-06-14T13:21:07;4.00;;;1.33;;
51949;SDS011;37974;53.218;6.640;2023-06-14T13:23:32;4.57;;;0.90;;
51949;SDS011;37974;53.218;6.640;2023-06-14T13:25:58;2.15;;;0.80;;
51949;SDS011;37974;53.218;6.640;2023-06-14T13:28:33;6.05;;;1.10;;
51949;SDS011;37974;53.218;6.640;2023-06-14T13:31:03;7.20;;;1.20;;
51949;SDS011;37974;53.218;6.640;2023-06-14T13:33:29;4.07;;;1.23;;
51949;SDS011;37974;53.218;6.640;2023-06-14T13:35:54;3.85;;;1.17;;
51949;SDS011;37974;53.218;6.640;2023-06-14T13:38:55;2.10;;;1.05;;
51949;SDS011;37974;53.218;6.640;2023-06-14T13:41:42;4.90;;;1.00;;
51949;SDS011;37974;53.218;6.640;2023-06-14T13:44:08;6.07;;;1.23;;
51949;SDS011;37974;53.218;6.640;2023-06-14T13:46:36;5.60;;;1.20;;
51949;SDS011;37974;53.218;6.640;2023-06-14T13:49:02;6.88;;;1.92;;
51949;SDS011;37974;53.218;6.640;2023-06-14T13:51:31;5.03;;;1.00;;
51949;SDS011;37974;53.218;6.640;2023-06-14T13:53:58;2.97;;;0.90;;
51949;SDS011;37974;53.218;6.640;2023-06-14T13:56:24;5.22;;;1.10;;
51949;SDS011;37974;53.218;6.640;2023-06-14T13:58:50;2.70;;;1.10;;
51949;SDS011;37974;53.218;6.640;2023-06-14T14:01:17;7.03;;;0.93;;
51949;SDS011;37974;53.218;6.640;2023-06-14T14:03:44;1.90;;;0.90;;
51949;SDS011;37974;53.218;6.640;2023-06-14T14:06:11;7.85;;;1.10;;
51949;SDS011;37974;53.218;6.640;2023-06-14T14:08:37;2.67;;;1.02;;
51949;SDS011;37974;53.218;6.640;2023-06-14T14:11:04;6.28;;;1.25;;
51949;SDS011;37974;53.218;6.640;2023-06-14T14:13:31;7.60;;;1.45;;
51949;SDS011;37974;53.218;6.640;2023-06-14T14:15:56;10.75;;;1.27;;
51949;SDS011;37974;53.218;6.640;2023-06-14T14:18:22;3.90;;;1.15;;
51949;SDS011;37974;53.218;6.640;2023-06-14T14:20:48;4.78;;;1.25;;
51949;SDS011;37974;53.218;6.640;2023-06-14T14:23:14;7.80;;;1.17;;
51949;SDS011;37974;53.218;6.640;2023-06-14T14:25:40;3.22;;;1.05;;
51949;SDS011;37974;53.218;6.640;2023-06-14T14:28:06;5.65;;;1.30;;
51949;SDS011;37974;53.218;6.640;2023-06-14T14:30:32;7.70;;;1.13;;
51949;SDS011;37974;53.218;6.640;2023-06-14T14:32:58;23.23;;;1.88;;
51949;SDS011;37974;53.218;6.640;2023-06-14T14:35:23;7.03;;;1.17;;
51949;SDS011;37974;53.218;6.640;2023-06-14T14:37:52;7.63;;;1.40;;
51949;SDS011;37974;53.218;6.640;2023-06-14T14:40:17;3.35;;;1.10;;
51949;SDS011;37974;53.218;6.640;2023-06-14T14:42:43;6.03;;;1.20;;
51949;SDS011;37974;53.218;6.640;2023-06-14T14:45:09;2.92;;;1.13;;
51949;SDS011;37974;53.218;6.640;2023-06-14T14:47:35;11.30;;;1.10;;
51949;SDS011;37974;53.218;6.640;2023-06-14T14:50:01;2.78;;;1.10;;
51949;SDS011;37974;53.218;6.640;2023-06-14T14:52:26;5.78;;;1.13;;
51949;SDS011;37974;53.218;6.640;2023-06-14T14:54:52;2.75;;;1.00;;
51949;SDS011;37974;53.218;6.640;2023-06-14T14:57:19;4.25;;;1.25;;
51949;SDS011;37974;53.218;6.640;2023-06-14T14:59:44;4.30;;;1.25;;
51949;SDS011;37974;53.218;6.640;2023-06-14T15:02:10;4.22;;;0.85;;